Time;durP1;ratioP1;P1;durP2;ratioP2;P2;SDS_P1;SDS_P2;PMS_P1;PMS_P2;Temp;Humidity;BMP_temperature;BMP_pressure;BME280_temperature;BME280_humidity;BME280_pressure;Samples;Min_cycle;Max_cycle;Signal;HPM_P1;HPM_P2
2022/09/29 00:02:15;;;;;;;16.58;14.00;;;;;;;5.35;100.00;99812.28;6094693;23;20018;-87
2022/09/29 00:04:40;;;;;;;16.58;14.00;;;;;;;5.31;100.00;99810.72;6101932;23;20017;-87
2022/09/29 00:07:06;;;;;;;14.82;13.30;;;;;;;5.30;100.00;99820.41;6118751;23;20014;-86
2022/09/29 00:09:31;;;;;;;14.45;12.95;;;;;;;5.29;100.00;99823.13;6119218;23;19999;-86
2022/09/29 00:11:56;;;;;;;14.20;12.70;;;;;;;5.27;100.00;99817.94;6120146;23;20006;-87
2022/09/29 00:14:22;;;;;;;15.48;13.07;;;;;;;5.19;100.00;99809.50;6112302;23;20066;-86
2022/09/29 00:16:48;;;;;;;16.98;12.63;;;;;;;5.21;100.00;99811.13;6086770;23;20058;-87
2022/09/29 00:19:13;;;;;;;15.35;13.20;;;;;;;5.19;100.00;99810.34;6087145;23;20010;-86
2022/09/29 00:21:39;;;;;;;15.70;14.02;;;;;;;5.18;100.00;99811.28;6101410;23;20010;-86
2022/09/29 00:24:04;;;;;;;15.00;13.48;;;;;;;5.14;100.00;99809.72;6095639;23;20033;-86
2022/09/29 00:26:29;;;;;;;16.80;14.07;;;;;;;5.12;100.00;99802.78;6095935;23;20014;-86
2022/09/29 00:28:57;;;;;;;14.88;13.40;;;;;;;5.10;100.00;99805.50;6096010;23;20009;-86
2022/09/29 00:31:24;;;;;;;15.88;14.13;;;;;;;5.10;100.00;99810.78;6095788;23;20002;-86
2022/09/29 00:33:50;;;;;;;18.50;14.15;;;;;;;5.08;100.00;99809.13;6068784;23;20153;-86
2022/09/29 00:36:17;;;;;;;15.82;14.15;;;;;;;5.07;100.00;99810.91;6094183;23;20425;-86
2022/09/29 00:38:44;;;;;;;15.90;14.23;;;;;;;5.02;100.00;99804.09;6094966;23;20053;-86
2022/09/29 00:41:16;;;;;;;14.68;12.50;;;;;;;4.99;100.00;99813.88;6093443;23;20424;-86
2022/09/29 00:43:51;;;;;;;15.45;13.80;;;;;;;4.98;100.00;99806.91;6067768;23;20009;-86
2022/09/29 00:46:29;;;;;;;15.40;13.77;;;;;;;4.98;100.00;99809.53;6092395;23;20006;-86
2022/09/29 00:48:58;;;;;;;16.58;13.52;;;;;;;4.91;100.00;99804.59;6067487;23;20294;-86
2022/09/29 00:51:26;;;;;;;15.93;13.70;;;;;;;4.91;100.00;99808.09;6093297;23;20017;-86
2022/09/29 00:53:52;;;;;;;15.88;13.65;;;;;;;4.88;100.00;99802.09;6093671;23;20002;-86
2022/09/29 00:56:18;;;;;;;17.45;14.80;;;;;;;4.84;100.00;99800.50;6092029;23;20014;-87
2022/09/29 00:58:53;;;;;;;15.88;14.18;;;;;;;4.85;100.00;99811.00;6092875;23;20006;-87
2022/09/29 01:01:21;;;;;;;15.70;14.18;;;;;;;4.83;100.00;99815.47;6092258;23;20011;-86
2022/09/29 01:03:47;;;;;;;15.43;13.77;;;;;;;4.78;100.00;99806.91;6093111;23;20041;-87
2022/09/29 01:06:18;;;;;;;16.52;14.27;;;;;;;4.75;100.00;99805.25;6091414;23;20048;-87
2022/09/29 01:09:00;;;;;;;18.27;14.80;;;;;;;4.76;100.00;99806.13;6092865;23;20341;-86
2022/09/29 01:11:26;;;;;;;15.88;14.00;;;;;;;4.71;100.00;99806.31;6092773;23;20006;-86
2022/09/29 01:13:53;;;;;;;18.55;15.07;;;;;;;4.66;100.00;99796.91;6091934;23;20022;-86
2022/09/29 01:16:19;;;;;;;17.30;15.50;;;;;;;4.70;100.00;99806.41;6091071;23;20002;-87
2022/09/29 01:18:45;;;;;;;18.63;16.48;;;;;;;4.69;100.00;99809.97;6092081;23;20013;-86
2022/09/29 01:21:38;;;;;;;17.33;15.48;;;;;;;4.67;100.00;99810.00;6091769;23;20031;-87
2022/09/29 01:24:28;;;;;;;17.17;15.25;;;;;;;4.65;100.00;99811.00;6091514;23;20051;-87
2022/09/29 01:27:13;;;;;;;18.45;16.25;;;;;;;4.65;100.00;99809.22;6091460;23;20336;-86
2022/09/29 01:30:15;;;;;;;19.05;16.38;;;;;;;4.62;100.00;99809.34;6091592;23;20006;-87
2022/09/29 01:33:20;;;;;;;18.67;16.70;;;;;;;4.61;100.00;99809.44;6065667;23;20025;-86
2022/09/29 01:36:00;;;;;;;18.30;16.33;;;;;;;4.57;100.00;99800.78;6091259;23;20467;-87
2022/09/29 01:38:47;;;;;;;16.48;14.77;;;;;;;4.50;100.00;99802.81;6091965;23;20002;-87
2022/09/29 01:41:25;;;;;;;17.30;15.60;;;;;;;4.45;100.00;99807.44;6091199;23;20006;-87
2022/09/29 01:44:17;;;;;;;16.25;14.52;;;;;;;4.48;100.00;99811.72;6092048;23;20061;-86
2022/09/29 01:46:48;;;;;;;18.20;15.73;;;;;;;4.45;100.00;99809.22;6076572;23;20021;-86
2022/09/29 01:49:15;;;;;;;18.17;16.15;;;;;;;4.44;100.00;99812.78;6092152;23;20003;-87
2022/09/29 01:51:47;;;;;;;18.08;16.15;;;;;;;4.39;100.00;99812.09;6092760;23;20033;-87
2022/09/29 01:54:21;;;;;;;18.27;16.30;;;;;;;4.35;100.00;99815.81;6093489;23;20029;-87
2022/09/29 01:56:54;;;;;;;17.63;15.95;;;;;;;4.35;100.00;99806.13;6067908;23;20092;-87
2022/09/29 01:59:30;;;;;;;19.45;17.15;;;;;;;4.34;100.00;99808.81;6092226;23;20002;-87
2022/09/29 02:02:01;;;;;;;18.73;16.88;;;;;;;4.34;100.00;99814.91;6092245;23;20006;-86
2022/09/29 02:04:32;;;;;;;19.15;16.88;;;;;;;4.32;100.00;99816.78;6090872;23;20734;-86
2022/09/29 02:07:03;;;;;;;19.90;17.83;;;;;;;4.30;100.00;99823.03;6091030;23;20029;-86
2022/09/29 02:09:38;;;;;;;20.05;17.85;;;;;;;4.27;100.00;99824.03;6090357;23;20006;-86
2022/09/29 02:12:06;;;;;;;19.65;17.63;;;;;;;4.25;100.00;99815.31;6065613;23;20342;-86
2022/09/29 02:14:37;;;;;;;20.30;17.92;;;;;;;4.20;100.00;99818.13;6090112;23;20333;-86
2022/09/29 02:17:18;;;;;;;21.63;18.90;;;;;;;4.22;100.00;99815.44;6091437;23;20037;-86
2022/09/29 02:19:46;;;;;;;20.50;18.40;;;;;;;4.17;100.00;99813.00;6066681;23;20448;-87
2022/09/29 02:22:12;;;;;;;23.45;18.33;;;;;;;4.16;100.00;99813.91;6091063;23;20010;-86
2022/09/29 02:24:38;;;;;;;23.38;19.13;;;;;;;4.15;100.00;99811.34;6092172;23;20013;-86
2022/09/29 02:27:04;;;;;;;20.50;18.30;;;;;;;4.10;100.00;99813.31;6094173;23;20085;-86
2022/09/29 02:29:30;;;;;;;21.25;18.95;;;;;;;4.11;100.00;99815.88;6093407;23;20002;-86
2022/09/29 02:32:00;;;;;;;20.38;18.35;;;;;;;4.09;100.00;99816.84;6096687;23;20017;-86
2022/09/29 02:34:26;;;;;;;19.85;17.33;;;;;;;4.09;100.00;99824.75;6084261;23;20010;-87
2022/09/29 02:37:08;;;;;;;19.52;17.48;;;;;;;4.02;100.00;99815.41;6120744;23;20022;-87
2022/09/29 02:39:52;;;;;;;20.48;18.33;;;;;;;4.04;100.00;99818.81;6119654;23;20001;-86
2022/09/29 02:42:56;;;;;;;21.35;19.15;;;;;;;4.00;100.00;99810.19;6118910;23;20001;-87
2022/09/29 02:45:54;;;;;;;21.15;18.65;;;;;;;4.01;100.00;99814.53;6094135;23;20013;-86
2022/09/29 02:48:37;;;;;;;21.38;19.17;;;;;;;3.96;100.00;99819.97;6089105;23;20062;-87
2022/09/29 02:51:32;;;;;;;20.42;18.27;;;;;;;3.95;100.00;99823.53;6119801;23;19998;-87
2022/09/29 02:54:29;;;;;;;19.77;17.58;;;;;;;3.87;100.00;99808.97;6101031;23;20042;-86
2022/09/29 02:57:18;;;;;;;19.70;17.65;;;;;;;3.89;100.00;99809.78;6107641;23;20002;-86
2022/09/29 03:00:08;;;;;;;20.42;18.33;;;;;;;3.85;100.00;99811.69;6106885;23;20007;-87
2022/09/29 03:02:34;;;;;;;20.15;18.13;;;;;;;3.83;100.00;99810.88;6103734;23;20037;-86
2022/09/29 03:05:00;;;;;;;20.92;18.83;;;;;;;3.83;100.00;99815.28;6101260;23;20010;-86
2022/09/29 03:07:25;;;;;;;18.00;16.23;;;;;;;3.68;100.00;99819.38;6104195;23;20388;-86
2022/09/29 03:09:51;;;;;;;19.73;17.80;;;;;;;3.67;100.00;99820.28;6078096;23;20005;-86
2022/09/29 03:12:17;;;;;;;19.80;17.80;;;;;;;3.70;100.00;99817.53;6101852;23;20580;-86
2022/09/29 03:14:43;;;;;;;19.60;17.50;;;;;;;3.66;100.00;99818.56;6094250;23;20311;-86
2022/09/29 03:17:08;;;;;;;22.23;18.45;;;;;;;3.63;100.00;99816.03;6093489;23;20030;-86
2022/09/29 03:19:33;;;;;;;20.73;18.45;;;;;;;3.64;100.00;99817.78;6094194;23;20036;-86
2022/09/29 03:21:59;;;;;;;20.58;17.73;;;;;;;3.64;100.00;99818.63;6094448;23;20359;-86
2022/09/29 03:24:25;;;;;;;20.27;18.13;;;;;;;3.63;100.00;99819.53;6094311;23;20242;-86
2022/09/29 03:26:50;;;;;;;21.02;18.65;;;;;;;3.62;100.00;99822.22;6095673;23;20002;-86
2022/09/29 03:29:15;;;;;;;20.77;18.52;;;;;;;3.60;100.00;99818.81;6095175;23;20379;-86
2022/09/29 03:31:41;;;;;;;22.75;18.70;;;;;;;3.58;100.00;99823.28;6094830;23;20373;-86
2022/09/29 03:34:06;;;;;;;20.27;17.58;;;;;;;3.57;100.00;99825.03;6094098;23;20074;-86
2022/09/29 03:36:31;;;;;;;20.63;18.52;;;;;;;3.58;100.00;99820.63;6094352;23;20002;-86
2022/09/29 03:38:56;;;;;;;19.95;17.95;;;;;;;3.52;100.00;99819.13;6094404;23;20339;-86
2022/09/29 03:41:22;;;;;;;22.70;18.38;;;;;;;3.52;100.00;99810.38;6093984;23;20002;-86
2022/09/29 03:43:47;;;;;;;20.63;17.42;;;;;;;3.48;100.00;99810.47;6067615;23;20006;-86
2022/09/29 03:46:12;;;;;;;20.98;18.75;;;;;;;3.54;100.00;99816.41;6094144;23;20013;-86
2022/09/29 03:48:38;;;;;;;21.42;19.23;;;;;;;3.45;100.00;99813.22;6093909;23;20010;-86
2022/09/29 03:51:04;;;;;;;21.40;19.27;;;;;;;3.48;100.00;99820.16;6093686;23;20002;-86
2022/09/29 03:53:30;;;;;;;21.88;19.65;;;;;;;3.46;100.00;99816.69;6094332;23;20349;-85
2022/09/29 03:55:55;;;;;;;19.55;17.55;;;;;;;3.40;100.00;99823.06;6095637;23;20006;-86
2022/09/29 03:58:21;;;;;;;20.42;18.33;;;;;;;3.37;100.00;99820.53;6096645;23;20010;-87
2022/09/29 04:00:48;;;;;;;21.92;19.55;;;;;;;3.38;100.00;99832.75;6095643;23;20010;-86
2022/09/29 04:03:14;;;;;;;21.63;19.33;;;;;;;3.29;100.00;99824.38;6093656;23;20029;-87
2022/09/29 04:05:39;;;;;;;21.52;19.27;;;;;;;3.29;100.00;99827.84;6093703;23;20006;-86
2022/09/29 04:08:05;;;;;;;21.52;19.23;;;;;;;3.21;100.00;99822.03;6092556;23;20011;-86
2022/09/29 04:10:33;;;;;;;22.48;20.17;;;;;;;3.25;100.00;99829.72;6093697;23;20050;-86
2022/09/29 04:12:59;;;;;;;22.25;19.92;;;;;;;3.31;100.00;99830.44;6093045;23;20341;-86
2022/09/29 04:15:24;;;;;;;21.70;19.38;;;;;;;3.29;100.00;99832.25;6092622;23;20011;-85
2022/09/29 04:17:49;;;;;;;22.10;19.77;;;;;;;3.24;100.00;99837.69;6093253;23;20091;-86
2022/09/29 04:20:16;;;;;;;20.63;18.42;;;;;;;3.22;100.00;99836.91;6066761;23;20009;-86
2022/09/29 04:22:41;;;;;;;22.02;19.10;;;;;;;3.21;100.00;99835.16;6092749;23;20082;-86
2022/09/29 04:25:07;;;;;;;21.25;19.02;;;;;;;3.21;100.00;99837.78;6091132;23;20006;-86
2022/09/29 04:27:32;;;;;;;22.27;19.85;;;;;;;3.16;100.00;99839.75;6092292;23;20085;-86
2022/09/29 04:29:57;;;;;;;22.55;20.25;;;;;;;3.17;100.00;99847.56;6092255;23;20573;-85
2022/09/29 04:32:23;;;;;;;21.27;19.08;;;;;;;3.12;100.00;99841.63;6092315;23;20017;-85
2022/09/29 04:34:49;;;;;;;21.80;18.52;;;;;;;3.12;100.00;99836.38;6091470;23;20006;-86
2022/09/29 04:37:14;;;;;;;22.50;19.08;;;;;;;3.12;100.00;99836.38;6092075;23;20017;-86
2022/09/29 04:39:39;;;;;;;24.10;19.65;;;;;;;3.07;100.00;99835.69;6092327;23;20007;-86
2022/09/29 04:42:05;;;;;;;23.30;20.35;;;;;;;3.08;100.00;99845.28;6091814;23;20010;-86
2022/09/29 04:44:30;;;;;;;22.17;19.88;;;;;;;3.06;100.00;99848.91;6091360;23;20057;-86
2022/09/29 04:46:55;;;;;;;22.17;19.80;;;;;;;3.06;100.00;99851.53;6066461;23;20148;-86
2022/09/29 04:49:21;;;;;;;23.35;20.95;;;;;;;3.05;100.00;99855.03;6091555;23;20133;-86
2022/09/29 04:51:47;;;;;;;24.05;20.88;;;;;;;3.05;100.00;99852.41;6092125;23;20142;-86
2022/09/29 04:54:12;;;;;;;25.45;20.75;;;;;;;2.99;100.00;99851.72;6090884;23;20422;-86
2022/09/29 04:56:37;;;;;;;25.25;21.60;;;;;;;2.99;100.00;99859.59;6092536;23;20056;-86
2022/09/29 04:59:03;;;;;;;23.48;20.95;;;;;;;3.02;100.00;99857.78;6093043;23;20002;-86
2022/09/29 05:01:29;;;;;;;23.80;21.15;;;;;;;2.99;100.00;99856.13;6093129;23;20007;-86
2022/09/29 05:03:54;;;;;;;23.85;21.33;;;;;;;2.99;100.00;99856.13;6098003;23;20073;-86
2022/09/29 05:06:20;;;;;;;23.85;21.20;;;;;;;2.94;100.00;99848.41;6097153;23;20025;-86
2022/09/29 05:08:45;;;;;;;25.23;22.40;;;;;;;2.97;100.00;99861.44;6098512;23;20097;-86
2022/09/29 05:11:10;;;;;;;27.02;22.42;;;;;;;2.92;100.00;99855.47;6069024;23;20006;-86
2022/09/29 05:13:36;;;;;;;25.00;21.40;;;;;;;2.95;100.00;99865.03;6101773;23;20010;-85
2022/09/29 05:16:03;;;;;;;24.88;22.17;;;;;;;2.92;100.00;99865.13;6095809;23;20014;-85
2022/09/29 05:18:29;;;;;;;25.40;22.00;;;;;;;2.91;100.00;99869.53;6120471;23;20033;-85
2022/09/29 05:20:55;;;;;;;25.27;21.60;;;;;;;2.87;100.00;99869.69;6095820;23;20021;-84
2022/09/29 05:23:21;;;;;;;22.92;20.48;;;;;;;2.88;100.00;99874.03;6110999;23;20006;-84
2022/09/29 05:25:47;;;;;;;23.55;21.02;;;;;;;2.87;100.00;99874.94;6115974;23;20029;-85
2022/09/29 05:28:16;;;;;;;24.42;21.75;;;;;;;2.82;100.00;99877.75;6115034;23;20008;-86
2022/09/29 05:30:42;;;;;;;24.10;21.50;;;;;;;2.81;100.00;99886.53;6099025;23;20013;-86
2022/09/29 05:33:07;;;;;;;24.85;21.92;;;;;;;2.73;100.00;99878.91;6095066;23;20070;-85
2022/09/29 05:35:32;;;;;;;26.88;22.60;;;;;;;2.82;100.00;99890.88;6096145;23;20003;-86
2022/09/29 05:37:58;;;;;;;24.92;21.13;;;;;;;2.80;100.00;99887.47;6070411;23;20007;-85
2022/09/29 05:40:23;;;;;;;25.95;22.38;;;;;;;2.73;100.00;99881.53;6095205;23;20002;-84
2022/09/29 05:42:49;;;;;;;25.00;22.35;;;;;;;2.79;100.00;99890.97;6094125;23;20006;-85
2022/09/29 05:45:15;;;;;;;24.60;21.20;;;;;;;2.81;100.00;99897.06;6068039;23;20393;-85
2022/09/29 05:47:42;;;;;;;25.92;23.13;;;;;;;2.82;100.00;99896.13;6093405;23;20013;-85
2022/09/29 05:50:08;;;;;;;25.55;22.55;;;;;;;2.81;100.00;99899.69;6093296;23;20450;-86
2022/09/29 05:52:33;;;;;;;25.77;22.83;;;;;;;2.83;100.00;99897.84;6093143;23;20013;-85
2022/09/29 05:54:59;;;;;;;25.05;22.20;;;;;;;2.85;100.00;99896.03;6095374;23;20006;-85
2022/09/29 05:57:24;;;;;;;25.48;22.50;;;;;;;2.87;100.00;99899.47;6095128;23;20010;-86
2022/09/29 05:59:49;;;;;;;31.45;26.70;;;;;;;2.83;100.00;99900.47;6094121;23;20146;-85
2022/09/29 06:02:15;;;;;;;26.33;23.33;;;;;;;2.88;100.00;99906.44;6068431;23;20002;-85
2022/09/29 06:04:41;;;;;;;27.27;22.55;;;;;;;2.90;100.00;99907.25;6092514;23;20010;-86
2022/09/29 06:07:06;;;;;;;28.40;23.00;;;;;;;2.91;100.00;99902.84;6066579;23;20022;-86
2022/09/29 06:09:34;;;;;;;29.45;23.85;;;;;;;2.93;100.00;99901.91;6091360;23;20413;-85
2022/09/29 06:11:59;;;;;;;30.00;24.67;;;;;;;3.00;100.00;99902.53;6065999;23;20343;-85
2022/09/29 06:14:25;;;;;;;30.48;25.98;;;;;;;3.03;100.00;99914.72;6091587;23;20003;-85
2022/09/29 06:16:50;;;;;;;34.13;24.88;;;;;;;3.06;100.00;99912.84;6091946;23;20007;-86
2022/09/29 06:19:15;;;;;;;29.80;24.67;;;;;;;3.11;100.00;99915.31;6091176;23;20002;-85
2022/09/29 06:21:41;;;;;;;30.35;24.95;;;;;;;3.13;100.00;99913.47;6090853;23;20425;-85
2022/09/29 06:24:06;;;;;;;28.83;24.83;;;;;;;3.16;100.00;99914.22;6090463;23;20006;-86
2022/09/29 06:26:32;;;;;;;31.52;26.23;;;;;;;3.26;100.00;99927.91;6091405;23;20058;-85
2022/09/29 06:28:58;;;;;;;33.22;25.27;;;;;;;3.31;100.00;99931.25;6091293;23;20855;-84
2022/09/29 06:31:26;;;;;;;32.67;27.02;;;;;;;3.47;100.00;99929.78;6089437;23;20037;-82
2022/09/29 06:33:51;;;;;;;35.63;30.35;;;;;;;3.74;100.00;99929.66;6089785;23;20009;-83
2022/09/29 06:39:07;;;;;;;32.65;28.63;;;;;;;4.35;100.00;99939.63;6090599;23;20105;-82
2022/09/29 06:41:34;;;;;;;33.00;26.90;;;;;;;4.65;100.00;99930.47;6064658;23;20085;-83
2022/09/29 06:43:59;;;;;;;27.40;24.50;;;;;;;4.99;100.00;99940.47;6090048;23;20014;-83
2022/09/29 06:46:25;;;;;;;27.42;23.52;;;;;;;5.34;100.00;99939.88;6090147;23;20017;-83
2022/09/29 06:48:52;;;;;;;24.33;20.67;;;;;;;5.53;100.00;99946.06;6092535;23;20061;-84
2022/09/29 06:51:17;;;;;;;22.30;19.33;;;;;;;5.86;100.00;99937.56;6065283;23;20400;-83
2022/09/29 06:53:44;;;;;;;20.65;17.67;;;;;;;6.06;100.00;99944.56;6090866;23;20040;-84
2022/09/29 06:56:09;;;;;;;20.90;17.25;;;;;;;5.99;100.00;99944.00;6065064;23;20109;-84
2022/09/29 06:58:34;;;;;;;22.17;18.27;;;;;;;5.84;100.00;99944.66;6092051;23;20086;-84
2022/09/29 07:01:01;;;;;;;21.60;19.25;;;;;;;5.65;100.00;99950.78;6091027;23;20085;-85
2022/09/29 07:03:27;;;;;;;21.25;17.95;;;;;;;5.50;100.00;99948.84;6091496;23;20113;-84
2022/09/29 07:05:52;;;;;;;23.92;18.70;;;;;;;5.36;100.00;99943.31;6091935;23;20009;-84
2022/09/29 07:08:17;;;;;;;25.00;19.52;;;;;;;5.29;100.00;99950.63;6092082;23;20148;-84
2022/09/29 07:10:45;;;;;;;26.38;19.60;;;;;;;5.21;100.00;99953.59;6091397;23;20002;-83
2022/09/29 07:13:10;;;;;;;28.02;21.05;;;;;;;5.09;100.00;99934.78;6094758;23;20010;-83
2022/09/29 07:15:36;;;;;;;24.42;20.35;;;;;;;5.11;100.00;99949.66;6099577;23;20522;-84
2022/09/29 07:18:02;;;;;;;22.60;19.20;;;;;;;5.08;100.00;99959.47;6101748;23;20074;-84
2022/09/29 07:20:29;;;;;;;28.50;20.27;;;;;;;5.02;100.00;99957.06;6102416;23;19998;-84
2022/09/29 07:22:55;;;;;;;26.02;19.58;;;;;;;5.02;100.00;99964.97;6076565;23;20341;-83
2022/09/29 07:25:20;;;;;;;28.92;21.52;;;;;;;5.02;100.00;99965.88;6076986;23;20006;-84
2022/09/29 07:27:47;;;;;;;30.55;22.50;;;;;;;4.99;100.00;99966.84;6098192;23;20002;-84
2022/09/29 07:30:13;;;;;;;27.63;21.75;;;;;;;5.09;100.00;99979.63;6091052;23;20082;-83
2022/09/29 07:32:38;;;;;;;34.75;25.95;;;;;;;5.21;100.00;99973.84;6065262;23;20391;-84
2022/09/29 07:35:04;;;;;;;36.03;26.88;;;;;;;5.75;100.00;99975.00;6098485;23;20002;-84
2022/09/29 07:37:30;;;;;;;35.53;23.80;;;;;;;6.70;100.00;99981.16;6103513;23;20062;-84
2022/09/29 07:39:55;;;;;;;26.63;20.25;;;;;;;7.51;100.00;99978.88;6087924;23;20018;-84
2022/09/29 07:42:21;;;;;;;23.92;18.30;;;;;;;8.34;100.00;99984.09;6107829;23;20069;-84
2022/09/29 07:44:46;;;;;;;20.98;15.98;;;;;;;9.30;96.55;99977.72;6106627;23;20033;-85
2022/09/29 07:47:12;;;;;;;22.27;16.73;;;;;;;9.93;93.71;99985.41;6100097;23;20022;-85
2022/09/29 07:49:38;;;;;;;20.77;17.23;;;;;;;10.70;89.77;99983.22;6100143;23;20455;-85
2022/09/29 07:52:03;;;;;;;15.55;13.02;;;;;;;11.50;82.69;99975.28;6108978;23;20053;-84
2022/09/29 07:54:29;;;;;;;17.92;13.15;;;;;;;11.74;82.44;99984.22;6111687;23;20115;-84
2022/09/29 07:56:55;;;;;;;17.48;13.18;;;;;;;11.82;80.75;99989.03;6115132;23;20018;-85
2022/09/29 07:59:21;;;;;;;16.15;11.98;;;;;;;11.94;78.92;99978.38;6114925;23;19999;-85
2022/09/29 08:01:46;;;;;;;15.70;12.05;;;;;;;12.00;79.05;99993.13;6106260;23;20010;-85
2022/09/29 08:04:11;;;;;;;15.15;11.30;;;;;;;11.89;77.95;99996.53;6078820;23;20010;-85
2022/09/29 08:06:38;;;;;;;15.90;11.63;;;;;;;11.89;79.56;99998.34;6104512;23;20022;-84
2022/09/29 08:09:04;;;;;;;14.80;11.48;;;;;;;11.80;78.86;99999.81;6099213;23;20002;-85
2022/09/29 08:11:30;;;;;;;15.63;12.98;;;;;;;11.77;79.27;100008.00;6095670;23;20115;-84
2022/09/29 08:13:55;;;;;;;15.95;12.32;;;;;;;11.76;78.43;100000.97;6096378;23;20007;-84
2022/09/29 08:16:21;;;;;;;13.82;12.20;;;;;;;11.64;78.88;100007.16;6095717;23;20446;-84
2022/09/29 08:18:46;;;;;;;13.70;12.25;;;;;;;11.54;79.40;100001.59;6094493;23;20029;-83
2022/09/29 08:21:14;;;;;;;15.77;12.55;;;;;;;11.53;78.46;100012.34;6067675;23;20109;-83
2022/09/29 08:23:41;;;;;;;16.90;12.77;;;;;;;11.68;78.87;100020.16;6067818;23;20007;-83
2022/09/29 08:26:09;;;;;;;17.15;11.93;;;;;;;11.79;78.75;100023.88;6067420;23;20585;-85
2022/09/29 08:28:37;;;;;;;12.45;11.05;;;;;;;11.83;76.65;100020.97;6093622;23;20493;-85
2022/09/29 08:31:10;;;;;;;14.70;11.70;;;;;;;11.92;77.06;100024.81;6092789;23;20006;-84
2022/09/29 08:33:36;;;;;;;13.35;10.60;;;;;;;11.98;75.07;100021.69;6093098;23;20038;-83
2022/09/29 08:36:05;;;;;;;14.30;11.07;;;;;;;12.08;76.12;100030.78;6092894;23;20006;-83
2022/09/29 08:38:30;;;;;;;15.88;12.52;;;;;;;12.66;74.01;100031.09;6092218;23;20011;-83
2022/09/29 08:40:56;;;;;;;14.23;11.15;;;;;;;13.93;71.80;100018.91;6065079;23;20104;-83
2022/09/29 08:43:37;;;;;;;15.10;10.35;;;;;;;15.76;68.86;100034.38;6091143;23;20007;-84
2022/09/29 08:46:22;;;;;;;13.93;10.50;;;;;;;17.33;60.58;100030.31;6092461;23;20434;-84
2022/09/29 08:48:49;;;;;;;12.05;9.88;;;;;;;18.52;54.76;100040.59;6092385;23;20038;-84
2022/09/29 08:51:39;;;;;;;12.68;9.23;;;;;;;19.24;59.51;100044.34;6091358;23;20182;-84
2022/09/29 08:54:18;;;;;;;10.85;8.63;;;;;;;19.97;52.84;100037.88;6092065;23;20259;-84
2022/09/29 08:56:44;;;;;;;11.30;9.07;;;;;;;20.35;48.15;100034.75;6091499;23;20010;-83
2022/09/29 08:59:10;;;;;;;11.77;9.18;;;;;;;20.36;48.97;100041.88;6091526;23;20022;-83
2022/09/29 09:02:02;;;;;;;10.30;8.75;;;;;;;20.91;52.82;100046.03;6090527;23;20451;-84
2022/09/29 09:04:30;;;;;;;10.85;9.35;;;;;;;21.19;45.58;100043.88;6091593;23;20016;-84
2022/09/29 09:07:08;;;;;;;12.60;9.30;;;;;;;21.56;48.04;100050.72;6091234;23;20611;-83
2022/09/29 09:09:56;;;;;;;13.10;9.15;;;;;;;22.09;47.28;100049.38;6091292;23;20010;-84
2022/09/29 09:12:34;;;;;;;10.52;8.90;;;;;;;22.54;41.83;100050.66;6065123;23;20058;-84
2022/09/29 09:15:37;;;;;;;9.85;8.27;;;;;;;22.99;47.73;100055.41;6091888;23;20093;-84
2022/09/29 09:18:50;;;;;;;8.93;7.72;;;;;;;23.68;44.51;100052.78;6091648;23;20006;-83
2022/09/29 09:21:18;;;;;;;10.48;8.20;;;;;;;23.93;39.98;100053.41;6065450;23;20014;-84
2022/09/29 09:23:54;;;;;;;9.20;7.68;;;;;;;24.27;40.74;100044.75;6093360;23;20002;-83
2022/09/29 09:26:44;;;;;;;10.68;7.82;;;;;;;24.49;38.10;100055.75;6090766;23;20364;-84
2022/09/29 09:29:27;;;;;;;9.95;8.32;;;;;;;25.14;39.13;100056.84;6091421;23;20014;-84
2022/09/29 09:31:59;;;;;;;9.10;8.20;;;;;;;25.32;36.42;100059.97;6090847;23;20009;-84
2022/09/29 09:34:35;;;;;;;8.23;7.40;;;;;;;25.58;38.35;100057.53;6091240;23;20072;-84
2022/09/29 09:37:15;;;;;;;9.45;7.30;;;;;;;25.89;37.87;100056.38;6091607;23;20009;-84
2022/09/29 09:40:10;;;;;;;10.05;7.25;;;;;;;25.89;36.14;100058.25;6091269;23;20009;-84
2022/09/29 09:42:38;;;;;;;7.97;7.00;;;;;;;25.93;32.75;100062.28;6070147;23;20142;-84
2022/09/29 09:45:15;;;;;;;8.50;6.70;;;;;;;26.25;35.08;100058.97;6091415;23;20026;-84
2022/09/29 09:47:48;;;;;;;11.18;7.57;;;;;;;26.54;33.60;100054.34;6091067;23;20038;-84
2022/09/29 09:50:18;;;;;;;;;;;;;;;27.58;38.00;100066.97;6090350;23;20010;-84
2022/09/29 09:52:50;;;;;;;7.22;6.22;;;;;;;27.26;31.35;100064.78;6091089;23;19905;-84
2022/09/29 09:55:23;;;;;;;10.70;7.15;;;;;;;27.50;31.31;100065.25;6090952;23;20114;-84
2022/09/29 09:58:17;;;;;;;8.60;7.00;;;;;;;27.91;34.32;100065.13;6091949;23;20014;-84
2022/09/29 10:00:47;;;;;;;10.88;8.13;;;;;;;27.74;30.47;100072.91;6089819;23;20671;-84
2022/09/29 10:03:15;;;;;;;9.32;7.15;;;;;;;27.95;30.11;100071.03;6064679;23;20002;-84
2022/09/29 10:05:44;;;;;;;9.77;6.75;;;;;;;28.32;29.15;100075.00;6091084;23;20034;-84
2022/09/29 10:08:23;;;;;;;8.55;6.70;;;;;;;28.56;31.81;100065.31;6091354;23;20045;-84
2022/09/29 10:10:48;;;;;;;10.43;6.80;;;;;;;28.57;29.45;100068.88;6064824;23;20102;-84
2022/09/29 10:13:15;;;;;;;8.48;6.78;;;;;;;29.00;28.23;100070.03;6093306;23;20059;-84
2022/09/29 10:15:56;;;;;;;9.88;6.70;;;;;;;29.58;29.72;100071.03;6099288;23;20014;-85
2022/09/29 10:18:31;;;;;;;7.47;6.13;;;;;;;29.58;28.96;100074.59;6070854;23;20529;-85
2022/09/29 10:20:56;;;;;;;7.57;5.78;;;;;;;29.66;27.45;100081.72;6096913;23;20014;-84
2022/09/29 10:23:25;;;;;;;6.90;5.47;;;;;;;29.81;27.22;100079.53;6108621;23;20041;-84
2022/09/29 10:25:57;;;;;;;8.52;5.10;;;;;;;30.02;27.22;100078.31;6112522;23;20002;-85
2022/09/29 10:28:25;;;;;;;6.55;4.93;;;;;;;29.98;25.32;100079.81;6109029;23;20018;-85
2022/09/29 10:30:53;;;;;;;6.15;5.07;;;;;;;30.04;25.29;100089.88;6107434;23;20006;-84
2022/09/29 10:33:21;;;;;;;5.93;4.70;;;;;;;29.87;26.04;100088.75;6111152;23;20018;-84
2022/09/29 10:35:51;;;;;;;6.80;5.55;;;;;;;30.35;26.83;100079.91;6115729;23;20014;-85
2022/09/29 10:38:24;;;;;;;5.10;3.90;;;;;;;30.45;26.05;100077.50;6109712;23;20022;-84
2022/09/29 10:40:56;;;;;;;6.07;4.18;;;;;;;30.20;26.41;100083.88;6108083;23;20013;-84
2022/09/29 10:43:25;;;;;;;5.77;4.47;;;;;;;30.88;24.78;100085.72;6108235;23;20054;-85
2022/09/29 10:45:57;;;;;;;5.85;3.90;;;;;;;31.23;23.27;100082.34;6076599;23;20015;-86
2022/09/29 10:48:22;;;;;;;6.07;4.10;;;;;;;31.26;23.26;100088.19;6094392;23;20344;-85
2022/09/29 10:50:51;;;;;;;4.30;3.78;;;;;;;31.49;23.87;100086.66;6068636;23;20097;-85
2022/09/29 10:53:40;;;;;;;3.58;2.78;;;;;;;32.00;24.60;100093.53;6094056;23;20014;-85
2022/09/29 10:56:19;;;;;;;6.40;3.22;;;;;;;30.71;25.49;100090.13;6093520;23;20425;-85
2022/09/29 10:58:53;;;;;;;4.55;3.75;;;;;;;31.11;25.61;100093.28;6092726;23;20084;-85
2022/09/29 11:01:19;;;;;;;5.13;4.13;;;;;;;31.91;24.09;100097.69;6090918;23;20006;-85
2022/09/29 11:04:00;;;;;;;2.72;2.17;;;;;;;32.18;23.92;100103.59;6091853;23;20011;-86
2022/09/29 11:06:34;;;;;;;2.80;2.45;;;;;;;32.45;22.19;100098.50;6066451;23;20140;-86
2022/09/29 11:09:06;;;;;;;4.22;2.50;;;;;;;32.53;21.51;100094.56;6066159;23;20330;-87
2022/09/29 11:11:31;;;;;;;4.10;2.47;;;;;;;32.83;21.02;100099.91;6090820;23;20006;-85
2022/09/29 11:13:58;;;;;;;3.35;3.03;;;;;;;33.16;21.07;100094.56;6091825;23;20308;-85
2022/09/29 11:16:30;;;;;;;3.08;2.40;;;;;;;32.65;21.98;100093.47;6091695;23;20344;-85
2022/09/29 11:19:03;;;;;;;4.78;3.33;;;;;;;32.25;23.62;100101.56;6091761;23;20054;-85
2022/09/29 11:21:41;;;;;;;4.63;3.75;;;;;;;32.96;23.62;100102.41;6090661;23;20032;-86
2022/09/29 11:24:24;;;;;;;5.03;3.08;;;;;;;32.21;24.05;100111.38;6091050;23;20014;-85
2022/09/29 11:27:04;;;;;;;3.60;2.50;;;;;;;29.24;25.98;100106.81;6065167;23;19998;-85
2022/09/29 11:29:56;;;;;;;3.45;2.17;;;;;;;27.91;28.11;100111.63;6090258;23;20010;-85
2022/09/29 11:32:32;;;;;;;4.18;2.20;;;;;;;26.60;28.66;100108.13;6091959;23;20088;-85
2022/09/29 11:35:16;;;;;;;2.47;1.98;;;;;;;28.52;28.00;100105.97;6091012;23;20081;-84
2022/09/29 11:37:56;;;;;;;5.28;2.70;;;;;;;29.29;27.34;100092.44;6091374;23;20081;-84